Time;durP1;ratioP1;P1;durP2;ratioP2;P2;SDS_P1;SDS_P2;PMS_P1;PMS_P2;Temp;Humidity;BMP_temperature;BMP_pressure;BME280_temperature;BME280_humidity;BME280_pressure;Samples;Min_cycle;Max_cycle;Signal;HPM_P1;HPM_P2
2023/01/12 00:01:49;;;;;;;5.10;3.38;;;;;;;;;;5028996;28;20472;-67
2023/01/12 00:04:14;;;;;;;5.78;3.83;;;;;;;;;;5012337;28;20089;-65
2023/01/12 00:06:40;;;;;;;4.97;3.50;;;;;;;;;;5041757;28;20558;-64
2023/01/12 00:09:06;;;;;;;5.07;3.45;;;;;;;;;;5048544;28;20045;-64
2023/01/12 00:11:31;;;;;;;5.28;3.78;;;;;;;;;;5026738;28;20060;-70
2023/01/12 00:13:57;;;;;;;6.23;3.60;;;;;;;;;;5040889;28;20025;-64
2023/01/12 00:16:36;;;;;;;5.00;3.35;;;;;;;;;;5044867;28;20326;-65
2023/01/12 00:19:09;;;;;;;5.22;3.42;;;;;;;;;;5022677;28;20037;-69
2023/01/12 00:21:39;;;;;;;5.38;3.50;;;;;;;;;;5045583;28;20025;-66
2023/01/12 00:24:07;;;;;;;4.95;3.75;;;;;;;;;;5039242;28;20156;-61
2023/01/12 00:26:32;;;;;;;4.03;3.60;;;;;;;;;;5057610;28;20029;-69
2023/01/12 00:28:57;;;;;;;4.20;3.43;;;;;;;;;;5055112;28;20029;-68
2023/01/12 00:31:23;;;;;;;5.03;4.00;;;;;;;;;;5042256;28;20288;-66
2023/01/12 00:33:48;;;;;;;5.13;3.30;;;;;;;;;;5061707;28;20416;-64
2023/01/12 00:36:13;;;;;;;4.77;3.47;;;;;;;;;;5052695;28;20287;-68
2023/01/12 00:38:38;;;;;;;4.97;3.42;;;;;;;;;;5012953;28;20808;-62
2023/01/12 00:41:07;;;;;;;5.07;3.50;;;;;;;;;;5024413;28;20068;-69
2023/01/12 00:46:16;;;;;;;5.32;3.45;;;;;;;;;;5024385;28;20099;-62
2023/01/12 00:48:41;;;;;;;4.30;3.17;;;;;;;;;;5020261;28;20089;-65
2023/01/12 00:51:07;;;;;;;5.27;3.50;;;;;;;;;;5041658;28;20282;-68
2023/01/12 00:53:32;;;;;;;4.57;3.30;;;;;;;;;;5030998;28;20647;-69
2023/01/12 00:56:01;;;;;;;4.90;3.43;;;;;;;;;;5043462;28;20123;-67
2023/01/12 00:58:27;;;;;;;4.43;3.40;;;;;;;;;;5040049;28;20417;-68
2023/01/12 01:00:52;;;;;;;4.25;3.20;;;;;;;;;;5042953;28;21267;-69
2023/01/12 01:03:17;;;;;;;5.07;3.53;;;;;;;;;;5023008;28;20569;-64
2023/01/12 01:05:43;;;;;;;3.88;2.97;;;;;;;;;;5020512;28;20291;-68
2023/01/12 01:08:08;;;;;;;4.50;3.57;;;;;;;;;;5025275;28;20395;-69
2023/01/12 01:10:33;;;;;;;4.07;2.90;;;;;;;;;;5033064;28;20331;-69
2023/01/12 01:12:58;;;;;;;5.10;3.37;;;;;;;;;;5044313;28;20029;-63
2023/01/12 01:15:24;;;;;;;4.80;3.25;;;;;;;;;;5043375;28;20310;-69
2023/01/12 01:17:49;;;;;;;4.13;3.03;;;;;;;;;;5038306;28;20477;-65
2023/01/12 01:20:14;;;;;;;4.80;3.28;;;;;;;;;;5039303;28;20288;-69
2023/01/12 01:22:40;;;;;;;3.78;3.30;;;;;;;;;;5045041;28;20060;-64
2023/01/12 01:25:05;;;;;;;4.82;3.17;;;;;;;;;;5056834;28;20047;-64
2023/01/12 01:27:30;;;;;;;4.95;3.58;;;;;;;;;;5033747;28;20091;-63
2023/01/12 01:29:56;;;;;;;4.47;3.07;;;;;;;;;;5038412;28;20128;-68
2023/01/12 01:32:21;;;;;;;4.88;3.22;;;;;;;;;;5024772;28;20856;-69
2023/01/12 01:34:47;;;;;;;4.25;3.47;;;;;;;;;;5025982;28;20052;-61
2023/01/12 01:37:12;;;;;;;4.80;3.20;;;;;;;;;;5032500;28;20038;-68
2023/01/12 01:39:37;;;;;;;4.37;2.97;;;;;;;;;;5055065;28;20131;-69
2023/01/12 01:42:02;;;;;;;5.37;3.40;;;;;;;;;;5042256;28;20295;-64
2023/01/12 01:44:27;;;;;;;4.43;3.20;;;;;;;;;;5054352;28;20302;-65
2023/01/12 01:46:54;;;;;;;4.70;3.33;;;;;;;;;;5049307;28;20876;-65
2023/01/12 01:49:33;;;;;;;4.90;3.38;;;;;;;;;;5036069;28;20044;-67
2023/01/12 01:52:02;;;;;;;3.88;3.03;;;;;;;;;;5035931;28;20037;-69
2023/01/12 01:54:28;;;;;;;5.25;3.40;;;;;;;;;;5057112;28;20075;-67
2023/01/12 01:56:54;;;;;;;4.28;3.03;;;;;;;;;;5044795;28;20038;-69
2023/01/12 01:59:20;;;;;;;5.22;3.40;;;;;;;;;;5024110;28;20036;-69
2023/01/12 02:01:46;;;;;;;4.45;3.13;;;;;;;;;;5036241;28;20037;-68
2023/01/12 02:04:11;;;;;;;4.90;3.10;;;;;;;;;;5036033;28;20114;-67
2023/01/12 02:06:36;;;;;;;4.67;3.40;;;;;;;;;;5042535;28;20052;-65
2023/01/12 02:09:14;;;;;;;3.90;3.05;;;;;;;;;;5016764;28;20289;-60
2023/01/12 02:17:11;;;;;;;4.57;3.00;;;;;;;;;;5029949;28;20044;-69
2023/01/12 02:20:02;;;;;;;3.40;2.72;;;;;;;;;;5032980;28;20053;-65
2023/01/12 02:22:30;;;;;;;4.35;3.20;;;;;;;;;;5021069;28;20103;-64
2023/01/12 02:25:14;;;;;;;3.67;2.95;;;;;;;;;;5010293;28;20048;-67
2023/01/12 02:27:46;;;;;;;5.45;3.17;;;;;;;;;;5019930;28;20103;-66
2023/01/12 02:30:30;;;;;;;4.15;2.88;;;;;;;;;;5014868;28;20103;-61
2023/01/12 02:33:07;;;;;;;3.65;3.08;;;;;;;;;;5016275;28;20038;-61
2023/01/12 02:35:36;;;;;;;4.53;3.10;;;;;;;;;;5015670;28;20037;-59
2023/01/12 02:38:01;;;;;;;4.45;3.20;;;;;;;;;;5030283;28;20079;-68
2023/01/12 02:40:26;;;;;;;4.07;3.00;;;;;;;;;;5038049;28;20037;-70
2023/01/12 02:42:57;;;;;;;4.47;3.00;;;;;;;;;;5030041;28;20311;-60
2023/01/12 02:45:26;;;;;;;4.43;3.05;;;;;;;;;;5043307;28;20397;-67
2023/01/12 02:47:55;;;;;;;3.75;2.85;;;;;;;;;;5030845;28;20077;-64
2023/01/12 02:50:30;;;;;;;3.70;2.67;;;;;;;;;;5036455;28;20103;-59
2023/01/12 02:52:56;;;;;;;4.47;3.13;;;;;;;;;;5035806;28;20057;-70
2023/01/12 02:55:22;;;;;;;3.22;2.35;;;;;;;;;;5047970;28;20124;-63
2023/01/12 02:57:47;;;;;;;3.58;2.67;;;;;;;;;;5043148;28;20153;-66
2023/01/12 03:00:13;;;;;;;3.80;2.70;;;;;;;;;;5025834;28;20482;-68
2023/01/12 03:02:38;;;;;;;4.20;2.88;;;;;;;;;;5035627;28;20455;-68
2023/01/12 03:05:04;;;;;;;4.07;2.97;;;;;;;;;;5036079;28;20108;-67
2023/01/12 03:07:52;;;;;;;4.20;2.80;;;;;;;;;;5044160;28;20044;-67
2023/01/12 03:10:34;;;;;;;4.22;3.22;;;;;;;;;;5017618;28;20071;-63
2023/01/12 03:13:00;;;;;;;3.42;2.60;;;;;;;;;;5013766;28;20033;-66
2023/01/12 03:15:27;;;;;;;3.78;2.80;;;;;;;;;;5044167;28;20021;-66
2023/01/12 03:17:59;;;;;;;3.45;2.53;;;;;;;;;;5043379;28;20060;-66
2023/01/12 03:20:25;;;;;;;3.78;2.67;;;;;;;;;;5042682;28;20013;-69
2023/01/12 03:22:52;;;;;;;4.22;3.30;;;;;;;;;;5020646;28;20037;-66
2023/01/12 03:25:17;;;;;;;3.72;2.80;;;;;;;;;;5041949;28;20049;-68
2023/01/12 03:27:47;;;;;;;3.90;3.08;;;;;;;;;;5041394;28;20044;-68
2023/01/12 03:30:16;;;;;;;3.78;2.88;;;;;;;;;;5044754;28;20628;-69
2023/01/12 03:32:41;;;;;;;3.70;2.90;;;;;;;;;;5025392;28;20059;-64
2023/01/12 03:35:08;;;;;;;3.97;2.90;;;;;;;;;;5029766;28;20029;-61
2023/01/12 03:37:35;;;;;;;3.72;2.90;;;;;;;;;;5011383;28;20280;-67
2023/01/12 03:40:01;;;;;;;3.35;2.42;;;;;;;;;;5038643;28;20041;-65
2023/01/12 03:42:32;;;;;;;3.95;2.83;;;;;;;;;;5045911;28;20040;-69
2023/01/12 03:45:10;;;;;;;3.08;2.38;;;;;;;;;;5045256;28;20045;-64
2023/01/12 03:47:35;;;;;;;3.92;2.80;;;;;;;;;;5034933;28;20072;-68
2023/01/12 03:50:05;;;;;;;4.15;2.60;;;;;;;;;;5043327;28;20037;-69
2023/01/12 03:52:30;;;;;;;3.87;2.57;;;;;;;;;;5045083;28;20041;-70
2023/01/12 03:54:56;;;;;;;3.20;2.45;;;;;;;;;;5042164;28;20029;-70
2023/01/12 03:57:21;;;;;;;2.92;2.22;;;;;;;;;;5043109;28;20513;-68
2023/01/12 03:59:46;;;;;;;3.85;2.80;;;;;;;;;;5041161;28;20497;-69
2023/01/12 04:02:11;;;;;;;3.60;2.70;;;;;;;;;;5037263;28;20186;-64
2023/01/12 04:04:37;;;;;;;3.40;2.70;;;;;;;;;;5041465;28;20045;-62
2023/01/12 04:07:02;;;;;;;3.10;2.53;;;;;;;;;;5039048;28;20090;-67
2023/01/12 04:09:27;;;;;;;3.50;2.58;;;;;;;;;;5037806;28;20342;-67
2023/01/12 04:12:10;;;;;;;3.92;2.78;;;;;;;;;;5048042;28;20559;-67
2023/01/12 04:14:43;;;;;;;3.40;2.67;;;;;;;;;;5042272;28;20119;-67
2023/01/12 04:17:08;;;;;;;3.38;2.45;;;;;;;;;;5041974;28;20136;-67
2023/01/12 04:19:34;;;;;;;3.13;2.70;;;;;;;;;;5028326;28;20580;-65
2023/01/12 04:24:43;;;;;;;4.30;2.90;;;;;;;;;;5039133;28;20322;-69
2023/01/12 04:27:08;;;;;;;3.35;2.72;;;;;;;;;;5043102;28;20044;-66
2023/01/12 04:29:34;;;;;;;4.25;2.78;;;;;;;;;;5037679;28;20535;-66
2023/01/12 04:31:59;;;;;;;3.33;2.50;;;;;;;;;;5044379;28;20033;-68
2023/01/12 04:34:25;;;;;;;3.70;2.90;;;;;;;;;;5029506;28;20034;-69
2023/01/12 04:36:50;;;;;;;3.30;2.58;;;;;;;;;;5036953;28;20045;-69
2023/01/12 04:39:15;;;;;;;3.20;2.63;;;;;;;;;;5044971;28;20147;-68
2023/01/12 04:41:40;;;;;;;2.80;2.47;;;;;;;;;;5045402;28;20300;-69
2023/01/12 04:44:06;;;;;;;3.28;2.63;;;;;;;;;;5044916;28;20398;-69
2023/01/12 04:46:31;;;;;;;3.88;2.72;;;;;;;;;;5033853;28;20527;-70
2023/01/12 04:48:57;;;;;;;2.90;2.50;;;;;;;;;;5024250;28;20119;-68
2023/01/12 04:51:22;;;;;;;3.22;2.47;;;;;;;;;;5025332;28;20758;-67
2023/01/12 04:53:48;;;;;;;4.00;2.83;;;;;;;;;;5039877;28;20426;-69
2023/01/12 04:56:13;;;;;;;4.10;2.63;;;;;;;;;;5043253;28;20862;-70
2023/01/12 04:58:38;;;;;;;2.60;2.17;;;;;;;;;;5045040;28;20051;-70
2023/01/12 05:01:10;;;;;;;4.17;2.47;;;;;;;;;;5025627;28;20292;-66
2023/01/12 05:03:35;;;;;;;6.15;2.38;;;;;;;;;;5041705;28;20063;-66
2023/01/12 05:06:01;;;;;;;3.40;2.50;;;;;;;;;;5045491;28;20455;-68
2023/01/12 05:11:10;;;;;;;4.30;2.75;;;;;;;;;;5048703;28;20064;-67
2023/01/12 05:13:35;;;;;;;3.20;2.40;;;;;;;;;;5044480;28;20065;-67
2023/01/12 05:16:07;;;;;;;2.40;2.20;;;;;;;;;;5038756;28;20410;-70
2023/01/12 05:18:32;;;;;;;2.42;2.10;;;;;;;;;;5043833;28;20423;-70
2023/01/12 05:20:58;;;;;;;3.67;2.30;;;;;;;;;;5044098;28;20019;-64
2023/01/12 05:23:23;;;;;;;2.73;2.00;;;;;;;;;;5041080;28;20331;-65
2023/01/12 05:25:48;;;;;;;3.13;2.30;;;;;;;;;;5049122;28;20017;-64
2023/01/12 05:28:14;;;;;;;2.93;2.33;;;;;;;;;;5035310;28;20051;-66
2023/01/12 05:30:39;;;;;;;3.30;2.63;;;;;;;;;;5005815;28;20260;-60
2023/01/12 05:33:04;;;;;;;2.63;2.03;;;;;;;;;;5030711;28;20108;-68
2023/01/12 05:35:30;;;;;;;2.33;2.13;;;;;;;;;;5029334;28;20478;-68
2023/01/12 05:37:55;;;;;;;2.50;2.20;;;;;;;;;;5038221;28;20467;-63
2023/01/12 05:40:20;;;;;;;2.63;2.13;;;;;;;;;;5045854;28;20270;-68
2023/01/12 05:45:32;;;;;;;2.95;2.50;;;;;;;;;;5042091;28;20067;-61
2023/01/12 05:47:58;;;;;;;2.97;2.15;;;;;;;;;;5039999;28;20044;-66
2023/01/12 05:50:23;;;;;;;2.95;2.25;;;;;;;;;;5041775;28;20040;-64
2023/01/12 05:52:52;;;;;;;2.50;2.00;;;;;;;;;;5045643;28;20037;-63
2023/01/12 05:55:17;;;;;;;2.85;2.05;;;;;;;;;;5043771;28;20735;-68
2023/01/12 05:57:42;;;;;;;2.72;2.08;;;;;;;;;;5044412;28;20041;-69
2023/01/12 06:00:08;;;;;;;2.47;2.10;;;;;;;;;;5043625;28;20053;-64
2023/01/12 06:02:33;;;;;;;3.00;2.22;;;;;;;;;;5041225;28;20361;-70
2023/01/12 06:04:58;;;;;;;2.90;2.40;;;;;;;;;;5044202;28;20437;-64
2023/01/12 06:07:23;;;;;;;2.90;2.50;;;;;;;;;;5032983;28;20287;-71
2023/01/12 06:09:49;;;;;;;2.70;2.10;;;;;;;;;;5019249;28;20604;-63
2023/01/12 06:15:03;;;;;;;3.85;2.20;;;;;;;;;;5003716;28;20277;-61
2023/01/12 06:17:29;;;;;;;2.40;2.00;;;;;;;;;;5021119;28;20122;-61
2023/01/12 06:19:54;;;;;;;2.85;2.42;;;;;;;;;;5027410;28;20179;-63
2023/01/12 06:22:19;;;;;;;3.47;1.93;;;;;;;;;;5039970;28;20145;-64
2023/01/12 06:24:47;;;;;;;5.32;1.83;;;;;;;;;;5040516;28;20471;-65
2023/01/12 06:27:13;;;;;;;2.60;1.88;;;;;;;;;;5044102;28;20054;-61
2023/01/12 06:29:38;;;;;;;2.53;1.90;;;;;;;;;;5056002;28;20100;-63
2023/01/12 06:32:03;;;;;;;2.60;2.03;;;;;;;;;;5043791;28;20029;-62
2023/01/12 06:34:33;;;;;;;3.00;2.17;;;;;;;;;;5018032;28;20280;-58
2023/01/12 06:36:58;;;;;;;2.67;2.20;;;;;;;;;;5007279;28;20152;-64
2023/01/12 06:39:24;;;;;;;2.50;1.90;;;;;;;;;;5028600;28;20171;-65
2023/01/12 06:44:33;;;;;;;3.50;2.40;;;;;;;;;;5033447;28;20140;-64
2023/01/12 06:47:00;;;;;;;2.77;2.00;;;;;;;;;;5051593;28;20120;-67
2023/01/12 06:49:25;;;;;;;2.80;2.30;;;;;;;;;;5042748;28;20275;-71
2023/01/12 06:51:51;;;;;;;2.70;2.20;;;;;;;;;;5042938;28;20094;-63
2023/01/12 06:54:16;;;;;;;2.20;1.80;;;;;;;;;;5037963;28;20437;-64
2023/01/12 06:56:41;;;;;;;2.90;2.20;;;;;;;;;;5042367;28;20701;-62
2023/01/12 06:59:08;;;;;;;2.80;2.10;;;;;;;;;;5043483;28;20452;-63
2023/01/12 07:01:34;;;;;;;3.42;2.00;;;;;;;;;;5055430;28;20872;-68
2023/01/12 07:03:59;;;;;;;2.80;2.20;;;;;;;;;;5038166;28;20160;-66
2023/01/12 07:06:24;;;;;;;3.30;2.40;;;;;;;;;;5043023;28;20810;-68
2023/01/12 07:08:49;;;;;;;3.80;1.90;;;;;;;;;;5036810;28;20348;-65
2023/01/12 07:11:15;;;;;;;2.63;1.83;;;;;;;;;;5043782;28;20283;-66
2023/01/12 07:13:41;;;;;;;2.50;1.92;;;;;;;;;;5041045;28;20544;-67
2023/01/12 07:16:06;;;;;;;3.03;2.05;;;;;;;;;;5041519;28;20033;-67
2023/01/12 07:18:31;;;;;;;2.15;1.73;;;;;;;;;;5032668;28;20483;-67
2023/01/12 07:20:57;;;;;;;2.67;1.85;;;;;;;;;;5023882;28;20545;-64
2023/01/12 07:23:22;;;;;;;3.25;2.15;;;;;;;;;;5045872;28;20052;-62
2023/01/12 07:25:47;;;;;;;3.85;2.33;;;;;;;;;;5051085;28;20028;-65
2023/01/12 07:28:12;;;;;;;2.50;2.00;;;;;;;;;;5036151;28;20038;-66
2023/01/12 07:30:38;;;;;;;2.43;1.83;;;;;;;;;;5026660;28;20367;-64
2023/01/12 07:33:10;;;;;;;2.75;2.10;;;;;;;;;;5040611;28;20279;-61
2023/01/12 07:35:35;;;;;;;2.40;1.70;;;;;;;;;;5009876;28;20093;-62
2023/01/12 07:38:00;;;;;;;2.53;1.98;;;;;;;;;;5032447;28;20485;-62
2023/01/12 07:40:26;;;;;;;2.50;1.90;;;;;;;;;;5042220;28;20122;-64
2023/01/12 07:43:00;;;;;;;3.03;2.20;;;;;;;;;;5027168;28;20468;-62
2023/01/12 07:45:26;;;;;;;2.13;1.70;;;;;;;;;;5044761;28;20299;-63
2023/01/12 07:47:54;;;;;;;2.30;1.83;;;;;;;;;;5036755;28;20081;-65
2023/01/12 07:50:20;;;;;;;2.30;1.88;;;;;;;;;;5037332;28;20041;-71
2023/01/12 07:52:45;;;;;;;3.05;2.00;;;;;;;;;;5054979;28;20404;-66
2023/01/12 07:55:10;;;;;;;2.80;2.17;;;;;;;;;;5045843;28;20025;-67
2023/01/12 07:57:36;;;;;;;3.30;2.30;;;;;;;;;;5036673;28;20378;-69
2023/01/12 08:00:02;;;;;;;3.20;2.20;;;;;;;;;;5041470;28;20288;-71
2023/01/12 08:02:28;;;;;;;2.60;1.92;;;;;;;;;;5045584;28;20033;-72
2023/01/12 08:04:54;;;;;;;3.15;2.05;;;;;;;;;;5039986;28;20025;-66
2023/01/12 08:07:19;;;;;;;3.15;1.90;;;;;;;;;;5033136;28;20034;-64
2023/01/12 08:09:44;;;;;;;2.97;2.20;;;;;;;;;;5047654;28;20420;-63
2023/01/12 08:12:09;;;;;;;3.87;2.10;;;;;;;;;;5056274;28;20267;-67
2023/01/12 08:14:38;;;;;;;2.60;2.00;;;;;;;;;;5046029;28;20279;-68
2023/01/12 08:17:08;;;;;;;3.15;2.20;;;;;;;;;;5033077;28;20298;-66
2023/01/12 08:19:39;;;;;;;2.67;2.28;;;;;;;;;;5045848;28;20043;-67
2023/01/12 08:22:06;;;;;;;2.88;1.92;;;;;;;;;;5060009;28;20028;-67
2023/01/12 08:24:33;;;;;;;2.80;2.05;;;;;;;;;;5037340;28;20060;-64
2023/01/12 08:26:59;;;;;;;2.95;2.03;;;;;;;;;;5044485;28;20546;-65
2023/01/12 08:29:30;;;;;;;2.25;1.70;;;;;;;;;;5045713;28;20032;-68
2023/01/12 08:31:59;;;;;;;3.03;1.90;;;;;;;;;;5029467;28;20041;-67
2023/01/12 08:34:31;;;;;;;3.17;2.40;;;;;;;;;;5038747;28;20074;-67
2023/01/12 08:36:57;;;;;;;2.45;1.95;;;;;;;;;;5021782;28;20049;-65
2023/01/12 08:39:22;;;;;;;2.58;1.83;;;;;;;;;;5027649;28;20038;-64
2023/01/12 08:41:47;;;;;;;2.77;1.90;;;;;;;;;;5042955;28;20033;-63
2023/01/12 08:44:14;;;;;;;3.33;2.30;;;;;;;;;;5046968;28;20013;-62
2023/01/12 08:46:47;;;;;;;3.47;2.03;;;;;;;;;;5023955;28;21621;-59
2023/01/12 08:49:13;;;;;;;3.65;2.08;;;;;;;;;;5009624;28;20136;-67
2023/01/12 08:51:38;;;;;;;2.75;2.00;;;;;;;;;;5024007;28;20477;-62
2023/01/12 08:54:03;;;;;;;2.58;1.90;;;;;;;;;;5038931;28;20033;-72
2023/01/12 08:56:29;;;;;;;2.70;1.88;;;;;;;;;;5029055;28;20511;-60
2023/01/12 08:58:55;;;;;;;2.88;1.95;;;;;;;;;;5030113;28;20063;-66
2023/01/12 09:01:20;;;;;;;3.27;2.10;;;;;;;;;;5038207;28;20022;-63
2023/01/12 09:03:47;;;;;;;3.22;2.15;;;;;;;;;;5047509;28;20298;-66
2023/01/12 09:06:19;;;;;;;2.75;2.15;;;;;;;;;;5043419;28;20115;-61
2023/01/12 09:08:45;;;;;;;3.05;2.20;;;;;;;;;;5038476;28;20020;-66
2023/01/12 09:11:10;;;;;;;2.65;2.20;;;;;;;;;;5041855;28;20035;-65
2023/01/12 09:13:35;;;;;;;3.20;2.08;;;;;;;;;;5056834;28;20033;-66
2023/01/12 09:16:04;;;;;;;3.73;2.30;;;;;;;;;;5042549;28;20034;-63
2023/01/12 09:18:30;;;;;;;3.00;2.20;;;;;;;;;;5030758;28;20319;-66
2023/01/12 09:21:02;;;;;;;3.90;2.13;;;;;;;;;;5040915;28;20096;-58
2023/01/12 09:23:27;;;;;;;3.35;2.00;;;;;;;;;;5020681;28;20608;-58
2023/01/12 09:25:52;;;;;;;3.23;1.80;;;;;;;;;;5045157;28;20120;-61
2023/01/12 09:28:17;;;;;;;2.80;1.83;;;;;;;;;;5036635;28;20061;-68
2023/01/12 09:30:42;;;;;;;3.30;2.30;;;;;;;;;;5042983;28;20057;-67
2023/01/12 09:33:08;;;;;;;2.97;1.97;;;;;;;;;;5042312;28;20276;-62
2023/01/12 09:35:33;;;;;;;2.73;2.07;;;;;;;;;;5042874;28;20076;-60
2023/01/12 09:37:58;;;;;;;2.50;1.83;;;;;;;;;;5035940;28;20341;-63
2023/01/12 09:40:23;;;;;;;3.47;1.80;;;;;;;;;;5044879;28;20155;-64
2023/01/12 09:48:18;;;;;;;3.33;2.10;;;;;;;;;;5038227;28;20068;-70
2023/01/12 09:51:03;;;;;;;3.40;2.00;;;;;;;;;;5032772;28;20040;-61
2023/01/12 09:53:33;;;;;;;4.15;2.00;;;;;;;;;;5043955;28;20041;-58
2023/01/12 09:56:12;;;;;;;4.47;2.00;;;;;;;;;;5032976;28;20021;-61
2023/01/12 09:58:52;;;;;;;2.93;1.67;;;;;;;;;;5055785;28;20044;-65
2023/01/12 10:01:18;;;;;;;3.53;1.95;;;;;;;;;;5018107;28;20064;-64
2023/01/12 10:03:43;;;;;;;2.78;2.13;;;;;;;;;;5019011;28;20033;-63
2023/01/12 10:06:13;;;;;;;5.22;2.00;;;;;;;;;;5028218;28;20136;-68
2023/01/12 10:08:38;;;;;;;3.30;2.22;;;;;;;;;;5037391;28;20028;-65
2023/01/12 10:11:09;;;;;;;3.80;2.40;;;;;;;;;;5035435;28;20520;-70
2023/01/12 10:13:42;;;;;;;3.35;2.00;;;;;;;;;;5020217;28;20485;-64
2023/01/12 10:16:09;;;;;;;2.97;2.20;;;;;;;;;;5023856;28;20029;-70
2023/01/12 10:18:37;;;;;;;3.08;2.00;;;;;;;;;;5011263;28;20112;-68
2023/01/12 10:21:06;;;;;;;3.55;2.08;;;;;;;;;;5026976;28;20036;-67
2023/01/12 10:23:31;;;;;;;3.00;2.10;;;;;;;;;;5042397;28;20162;-68
2023/01/12 10:26:17;;;;;;;2.87;1.90;;;;;;;;;;5051184;28;20111;-66
2023/01/12 10:28:42;;;;;;;2.90;1.75;;;;;;;;;;5053001;28;20284;-69
2023/01/12 10:31:08;;;;;;;2.22;1.77;;;;;;;;;;5035105;28;20041;-68
2023/01/12 10:33:33;;;;;;;3.17;1.90;;;;;;;;;;5017540;28;20076;-66
2023/01/12 10:36:07;;;;;;;2.40;1.83;;;;;;;;;;5026402;28;20025;-69
2023/01/12 10:38:33;;;;;;;3.13;2.00;;;;;;;;;;5044583;28;20089;-68
2023/01/12 10:41:11;;;;;;;2.67;1.92;;;;;;;;;;5032572;28;20044;-64
2023/01/12 10:43:37;;;;;;;4.20;2.00;;;;;;;;;;5024412;28;20410;-67
2023/01/12 10:46:11;;;;;;;4.72;2.00;;;;;;;;;;5040981;28;20116;-70
2023/01/12 10:48:38;;;;;;;2.30;1.80;;;;;;;;;;5037855;28;20041;-66
2023/01/12 10:51:04;;;;;;;2.55;1.90;;;;;;;;;;5016033;28;20382;-65
2023/01/12 10:53:31;;;;;;;2.97;1.75;;;;;;;;;;5035364;28;20042;-64
2023/01/12 10:55:57;;;;;;;2.80;1.70;;;;;;;;;;5017555;28;20041;-63
2023/01/12 10:58:26;;;;;;;3.85;1.95;;;;;;;;;;5021150;28;20032;-64
2023/01/12 11:00:52;;;;;;;3.55;2.00;;;;;;;;;;5020776;28;20140;-66
2023/01/12 11:03:36;;;;;;;2.55;1.75;;;;;;;;;;5027760;28;20042;-65
2023/01/12 11:06:13;;;;;;;2.13;1.50;;;;;;;;;;5042065;28;20041;-60
2023/01/12 11:08:39;;;;;;;4.40;1.70;;;;;;;;;;5047241;28;20380;-66
2023/01/12 11:11:24;;;;;;;2.40;1.80;;;;;;;;;;5034137;28;20503;-62
2023/01/12 11:13:59;;;;;;;2.70;1.67;;;;;;;;;;5024248;28;20287;-61
2023/01/12 11:16:31;;;;;;;4.07;1.88;;;;;;;;;;5047643;28;20468;-66
2023/01/12 11:19:03;;;;;;;2.42;1.40;;;;;;;;;;5059389;28;21120;-69
2023/01/12 11:21:29;;;;;;;2.40;1.80;;;;;;;;;;5051874;28;20050;-67
2023/01/12 11:23:54;;;;;;;2.00;1.52;;;;;;;;;;5048958;28;20064;-64
2023/01/12 11:26:21;;;;;;;3.10;1.90;;;;;;;;;;5046062;28;20095;-67
2023/01/12 11:28:46;;;;;;;2.13;1.73;;;;;;;;;;5046277;28;20081;-60
2023/01/12 11:31:17;;;;;;;1.90;1.42;;;;;;;;;;5046141;28;20429;-67
2023/01/12 11:33:43;;;;;;;2.80;1.60;;;;;;;;;;5046988;28;20483;-67
2023/01/12 11:36:09;;;;;;;3.00;1.77;;;;;;;;;;5043174;28;20120;-62
2023/01/12 11:38:39;;;;;;;2.63;1.70;;;;;;;;;;5050682;28;20037;-67
2023/01/12 11:41:06;;;;;;;2.50;1.42;;;;;;;;;;5038958;28;20029;-68
2023/01/12 11:43:54;;;;;;;2.80;1.50;;;;;;;;;;5057486;28;20045;-65
2023/01/12 11:46:23;;;;;;;1.70;1.30;;;;;;;;;;5038708;28;20045;-62
2023/01/12 11:48:51;;;;;;;2.42;1.60;;;;;;;;;;5043622;28;20037;-66
2023/01/12 11:51:17;;;;;;;2.55;1.50;;;;;;;;;;5043010;28;20048;-68
2023/01/12 11:53:42;;;;;;;2.10;1.60;;;;;;;;;;5044293;28;20017;-61
2023/01/12 11:56:11;;;;;;;4.05;1.50;;;;;;;;;;5042289;28;20338;-67
2023/01/12 11:58:36;;;;;;;2.20;1.52;;;;;;;;;;5048399;28;20029;-65
2023/01/12 12:01:34;;;;;;;1.93;1.40;;;;;;;;;;5040962;28;20063;-64
2023/01/12 12:04:14;;;;;;;3.45;1.77;;;;;;;;;;5033279;28;20041;-59
2023/01/12 12:06:42;;;;;;;2.25;1.58;;;;;;;;;;5042942;28;20083;-64
2023/01/12 12:09:26;;;;;;;2.22;1.52;;;;;;;;;;5041773;28;20025;-64
2023/01/12 12:12:01;;;;;;;2.08;1.40;;;;;;;;;;5008612;28;20145;-64
2023/01/12 12:14:39;;;;;;;1.98;1.30;;;;;;;;;;5022186;28;20025;-65
2023/01/12 12:17:23;;;;;;;2.50;1.80;;;;;;;;;;5018679;28;20025;-65
2023/01/12 12:20:15;;;;;;;2.10;1.50;;;;;;;;;;5032733;28;20048;-63
2023/01/12 12:22:52;;;;;;;3.50;1.33;;;;;;;;;;5039415;28;20561;-72
2023/01/12 12:25:21;;;;;;;2.28;1.60;;;;;;;;;;5047361;28;20485;-73
2023/01/12 12:27:50;;;;;;;3.00;1.52;;;;;;;;;;5043912;28;20037;-69
2023/01/12 12:30:24;;;;;;;2.20;1.40;;;;;;;;;;5032280;28;20141;-66
2023/01/12 12:33:09;;;;;;;2.00;1.40;;;;;;;;;;5045048;28;20025;-69
2023/01/12 12:35:37;;;;;;;2.00;1.50;;;;;;;;;;5028019;28;20462;-63
2023/01/12 12:38:24;;;;;;;1.40;1.05;;;;;;;;;;5015894;28;20060;-70
2023/01/12 12:46:54;;;;;;;2.15;1.35;;;;;;;;;;5032917;28;20040;-65
2023/01/12 12:49:21;;;;;;;2.22;1.48;;;;;;;;;;5044425;28;20079;-64
2023/01/12 12:51:46;;;;;;;2.42;1.35;;;;;;;;;;5046306;28;20040;-63
2023/01/12 12:54:14;;;;;;;2.23;1.40;;;;;;;;;;5043390;28;20488;-64
2023/01/12 12:56:39;;;;;;;1.88;1.40;;;;;;;;;;5046924;28;20738;-65
2023/01/12 12:59:04;;;;;;;2.17;1.40;;;;;;;;;;5017375;28;20684;-60
2023/01/12 13:01:30;;;;;;;2.22;1.20;;;;;;;;;;5025821;28;20061;-68
2023/01/12 13:03:55;;;;;;;2.47;1.60;;;;;;;;;;5024965;28;20053;-70
2023/01/12 13:06:21;;;;;;;2.42;1.40;;;;;;;;;;5037367;28;20067;-64
2023/01/12 13:09:13;;;;;;;1.90;1.42;;;;;;;;;;5050746;28;20156;-61
2023/01/12 13:11:45;;;;;;;1.95;1.40;;;;;;;;;;5032071;28;20075;-65
2023/01/12 13:14:26;;;;;;;1.77;1.30;;;;;;;;;;5038345;28;20029;-62
2023/01/12 13:16:57;;;;;;;1.98;1.40;;;;;;;;;;5052619;28;20401;-68
2023/01/12 13:19:31;;;;;;;2.33;1.30;;;;;;;;;;5045199;28;20021;-67
2023/01/12 13:21:57;;;;;;;1.90;1.30;;;;;;;;;;5009680;28;20108;-63
2023/01/12 13:24:26;;;;;;;2.00;1.50;;;;;;;;;;5026392;28;20029;-64
2023/01/12 13:26:52;;;;;;;2.63;1.55;;;;;;;;;;5044483;28;20024;-64
2023/01/12 13:29:27;;;;;;;2.20;1.40;;;;;;;;;;5044111;28;20019;-61
2023/01/12 13:31:53;;;;;;;1.48;1.20;;;;;;;;;;5047931;28;20344;-69
2023/01/12 13:34:47;;;;;;;2.13;1.30;;;;;;;;;;5032651;28;20359;-66
2023/01/12 13:37:30;;;;;;;2.72;1.35;;;;;;;;;;5035374;28;20191;-70
2023/01/12 13:40:02;;;;;;;2.10;1.50;;;;;;;;;;5035539;28;20060;-64
2023/01/12 13:45:15;;;;;;;2.22;1.48;;;;;;;;;;5030300;28;20060;-63
2023/01/12 13:47:40;;;;;;;1.65;1.20;;;;;;;;;;5057957;28;20060;-61
2023/01/12 13:50:08;;;;;;;2.20;1.27;;;;;;;;;;5027148;28;20033;-65
2023/01/12 13:52:34;;;;;;;1.77;1.30;;;;;;;;;;5023799;28;20049;-63
2023/01/12 13:55:00;;;;;;;2.55;1.40;;;;;;;;;;5020264;28;20029;-67
2023/01/12 13:57:26;;;;;;;1.90;1.30;;;;;;;;;;5043047;28;20041;-68
2023/01/12 14:00:14;;;;;;;2.10;1.58;;;;;;;;;;5033682;28;20067;-65
2023/01/12 14:02:39;;;;;;;2.03;1.40;;;;;;;;;;5034743;28;20041;-64
2023/01/12 14:05:14;;;;;;;2.00;1.47;;;;;;;;;;5030389;28;20043;-63
2023/01/12 14:07:49;;;;;;;2.00;1.30;;;;;;;;;;5043179;28;20351;-65
2023/01/12 14:10:35;;;;;;;2.00;1.33;;;;;;;;;;5019509;28;20469;-69
2023/01/12 14:13:00;;;;;;;2.30;1.50;;;;;;;;;;5017006;28;20111;-69
2023/01/12 14:18:16;;;;;;;2.17;1.20;;;;;;;;;;5028301;28;20052;-60
2023/01/12 14:20:45;;;;;;;3.80;1.40;;;;;;;;;;5026540;28;20103;-67
2023/01/12 14:23:15;;;;;;;2.75;1.40;;;;;;;;;;5034148;28;20041;-64
2023/01/12 14:25:40;;;;;;;1.77;1.23;;;;;;;;;;5031952;28;20431;-66
2023/01/12 14:28:18;;;;;;;1.88;1.48;;;;;;;;;;5023498;28;20093;-68
2023/01/12 14:30:53;;;;;;;2.72;1.63;;;;;;;;;;5020511;28;20048;-64
2023/01/12 14:33:20;;;;;;;2.22;1.25;;;;;;;;;;5038382;28;20040;-62
2023/01/12 14:35:46;;;;;;;2.63;1.35;;;;;;;;;;5039334;28;20058;-68
2023/01/12 14:38:12;;;;;;;2.35;1.30;;;;;;;;;;5044186;28;20029;-68
2023/01/12 14:40:37;;;;;;;4.03;1.48;;;;;;;;;;5057853;28;20131;-62
2023/01/12 14:46:25;;;;;;;2.65;1.70;;;;;;;;;;5044783;28;20318;-60
2023/01/12 14:48:54;;;;;;;2.50;1.38;;;;;;;;;;5047819;28;20076;-69
2023/01/12 14:51:33;;;;;;;1.73;1.30;;;;;;;;;;5015978;28;20033;-66
2023/01/12 14:54:07;;;;;;;2.97;1.52;;;;;;;;;;5048709;28;20127;-64
2023/01/12 14:56:40;;;;;;;3.83;1.70;;;;;;;;;;5058090;28;20032;-63
2023/01/12 14:59:06;;;;;;;2.45;1.35;;;;;;;;;;5044510;28;20038;-66
2023/01/12 15:01:32;;;;;;;2.10;1.58;;;;;;;;;;5032598;28;20029;-62
2023/01/12 15:03:57;;;;;;;3.67;1.52;;;;;;;;;;5050672;28;20051;-64
2023/01/12 15:06:23;;;;;;;2.83;1.37;;;;;;;;;;5044804;28;20025;-74
2023/01/12 15:08:55;;;;;;;1.60;1.20;;;;;;;;;;5052184;28;20263;-70
2023/01/12 15:11:27;;;;;;;2.35;1.50;;;;;;;;;;5046851;28;20690;-71
2023/01/12 15:13:59;;;;;;;2.50;1.20;;;;;;;;;;5046452;28;20426;-65
2023/01/12 15:27:22;;;;;;;2.10;1.50;;;;;;;;;;5037467;28;20040;-62
2023/01/12 15:29:47;;;;;;;2.10;1.30;;;;;;;;;;5047830;28;20143;-67
2023/01/12 15:32:22;;;;;;;2.45;1.40;;;;;;;;;;5038676;28;20024;-67
2023/01/12 15:34:47;;;;;;;2.97;1.60;;;;;;;;;;5055186;28;20064;-62
2023/01/12 15:37:13;;;;;;;2.33;1.60;;;;;;;;;;5057082;28;20024;-64
2023/01/12 15:39:38;;;;;;;2.45;1.40;;;;;;;;;;5028631;28;20025;-67
2023/01/12 15:42:17;;;;;;;2.97;1.67;;;;;;;;;;5060383;28;20020;-69
2023/01/12 15:44:45;;;;;;;1.80;1.30;;;;;;;;;;5062532;28;21014;-64